createdAt,value
2018-06-18T00:01:44.772Z,97609.05
2018-06-18T00:04:12.538Z,97600.82
2018-06-18T00:06:40.041Z,97604.92
2018-06-18T00:09:07.493Z,97610.97
2018-06-18T00:11:34.926Z,97613.85
2018-06-18T00:14:02.366Z,97614.16
2018-06-18T00:16:29.827Z,97620.48
2018-06-18T00:18:57.284Z,97621.48
2018-06-18T00:21:24.700Z,97619.56
2018-06-18T00:23:52.094Z,97618.02
2018-06-18T00:26:19.619Z,97614.30
2018-06-18T00:28:47.136Z,97607.06
2018-06-18T00:31:14.562Z,97603.59
2018-06-18T00:33:42.965Z,97615.72
2018-06-18T00:36:10.434Z,97609.87
2018-06-18T00:38:37.856Z,97613.99
2018-06-18T00:41:05.249Z,97614.08
2018-06-18T00:43:32.679Z,97603.64
2018-06-18T00:46:00.657Z,97606.01
2018-06-18T00:48:28.080Z,97600.90
2018-06-18T00:50:55.569Z,97607.13
2018-06-18T00:53:23.117Z,97607.41
2018-06-18T00:56:07.166Z,97604.54
2018-06-18T00:58:34.655Z,97602.23
2018-06-18T01:01:02.130Z,97606.32
2018-06-18T01:03:29.564Z,97600.63
2018-06-18T01:05:57.343Z,97613.38
2018-06-18T01:08:25.016Z,97617.70
2018-06-18T01:10:52.552Z,97619.02
2018-06-18T01:13:20.001Z,97623.23
2018-06-18T01:15:47.437Z,97618.14
2018-06-18T01:18:14.933Z,97608.78
2018-06-18T01:20:42.382Z,97604.48
2018-06-18T01:23:09.822Z,97608.06
2018-06-18T01:25:37.260Z,97606.95
2018-06-18T01:28:04.760Z,97613.92
2018-06-18T01:30:32.232Z,97612.28
2018-06-18T01:32:59.638Z,97607.23
2018-06-18T01:35:27.097Z,97604.91
2018-06-18T01:37:54.670Z,97607.91
2018-06-18T01:40:22.141Z,97609.38
2018-06-18T01:42:49.699Z,97610.30
2018-06-18T01:45:17.115Z,97604.41
2018-06-18T01:47:44.818Z,97607.73
2018-06-18T01:50:12.258Z,97605.55
2018-06-18T01:52:39.720Z,97609.35
2018-06-18T01:55:07.165Z,97605.86
2018-06-18T01:57:34.679Z,97603.58
2018-06-18T02:00:02.089Z,97608.73
2018-06-18T02:02:29.555Z,97610.09
2018-06-18T02:04:57.006Z,97604.38
2018-06-18T02:07:24.533Z,97611.92
2018-06-18T02:09:51.902Z,97616.45
2018-06-18T02:12:19.358Z,97616.27
2018-06-18T02:14:46.822Z,97619.34
2018-06-18T02:17:14.341Z,97611.23
2018-06-18T02:19:41.828Z,97615.29
2018-06-18T02:22:09.257Z,97613.78
2018-06-18T02:24:36.674Z,97611.50
2018-06-18T02:27:04.125Z,97612.34
2018-06-18T02:29:37.163Z,97610.84
2018-06-18T02:32:10.276Z,97611.55
2018-06-18T02:37:49.619Z,97608.23
2018-06-18T02:40:17.144Z,97611.20
2018-06-18T02:42:44.619Z,97609.73
2018-06-18T02:45:12.103Z,97607.42
2018-06-18T02:47:40.078Z,97609.25
2018-06-18T02:50:07.519Z,97613.72
2018-06-18T02:52:35.069Z,97615.42
2018-06-18T02:55:02.519Z,97624.37
2018-06-18T02:57:29.988Z,97620.25
2018-06-18T02:59:57.418Z,97625.64
2018-06-18T03:02:24.866Z,97627.86
2018-06-18T03:04:52.323Z,97630.20
2018-06-18T03:07:19.736Z,97627.05
2018-06-18T03:09:47.182Z,97642.05
2018-06-18T03:12:14.699Z,97634.91
2018-06-18T03:14:42.252Z,97634.25
2018-06-18T03:17:09.724Z,97627.47
2018-06-18T03:22:51.814Z,97638.19
2018-06-18T03:25:19.310Z,97633.55
2018-06-18T03:30:41.089Z,97638.19
2018-06-18T03:33:08.554Z,97644.70
2018-06-18T03:35:37.898Z,97640.34
2018-06-18T03:38:05.393Z,97635.87
2018-06-18T03:40:32.831Z,97630.05
2018-06-18T03:43:00.305Z,97630.47
2018-06-18T03:45:27.734Z,97626.43
2018-06-18T03:47:55.192Z,97632.51
2018-06-18T03:50:22.678Z,97641.98
2018-06-18T03:52:50.118Z,97644.27
2018-06-18T03:55:17.653Z,97641.83
2018-06-18T03:57:45.324Z,97640.86
2018-06-18T04:00:12.751Z,97648.97
2018-06-18T04:05:52.108Z,97652.47
2018-06-18T04:08:19.533Z,97648.31
2018-06-18T04:10:52.640Z,97649.38
2018-06-18T04:13:20.101Z,97646.37
2018-06-18T04:15:47.550Z,97648.33
2018-06-18T04:18:15.014Z,97647.56
2018-06-18T04:20:42.432Z,97642.39
2018-06-18T04:23:09.924Z,97646.80
2018-06-18T04:25:37.314Z,97653.25
2018-06-18T04:28:04.771Z,97660.39
2018-06-18T04:30:32.258Z,97662.20
2018-06-18T04:32:59.717Z,97658.75
2018-06-18T04:35:27.186Z,97660.05
2018-06-18T04:37:54.715Z,97663.23
2018-06-18T04:40:22.141Z,97667.22
2018-06-18T04:42:49.623Z,97662.15
2018-06-18T04:48:26.781Z,97664.45
2018-06-18T04:50:57.828Z,97666.31
2018-06-18T04:53:25.496Z,97671.80
2018-06-18T04:55:52.939Z,97670.05
2018-06-18T04:58:20.341Z,97672.94
2018-06-18T05:00:47.811Z,97669.59
2018-06-18T05:03:15.412Z,97672.03
2018-06-18T05:05:42.945Z,97672.75
2018-06-18T05:08:10.424Z,97671.52
2018-06-18T05:10:37.854Z,97664.08
2018-06-18T05:13:05.347Z,97663.00
2018-06-18T05:15:32.754Z,97664.13
2018-06-18T05:18:00.179Z,97674.48
2018-06-18T05:20:27.661Z,97671.15
2018-06-18T05:22:55.134Z,97666.13
2018-06-18T05:25:22.710Z,97670.41
2018-06-18T05:27:51.109Z,97661.86
2018-06-18T05:30:18.564Z,97663.91
2018-06-18T05:32:46.179Z,97662.47
2018-06-18T05:35:13.628Z,97661.73
2018-06-18T05:37:41.082Z,97662.92
2018-06-18T05:40:08.505Z,97658.31
2018-06-18T05:42:36.973Z,97658.48
2018-06-18T05:45:04.413Z,97666.45
2018-06-18T05:47:32.004Z,97666.70
2018-06-18T05:49:59.498Z,97669.69
2018-06-18T05:52:26.991Z,97672.88
2018-06-18T05:54:54.552Z,97665.30
2018-06-18T05:57:22.037Z,97663.47
2018-06-18T05:59:49.629Z,97675.47
2018-06-18T06:02:17.085Z,97671.09
2018-06-18T06:04:44.652Z,97669.66
2018-06-18T06:07:12.110Z,97669.17
2018-06-18T06:09:39.785Z,97667.45
2018-06-18T06:12:07.306Z,97669.53
2018-06-18T06:14:34.908Z,97665.43
2018-06-18T06:17:02.515Z,97664.55
2018-06-18T06:19:29.929Z,97668.84
2018-06-18T06:21:57.476Z,97664.62
2018-06-18T06:24:24.968Z,97661.83
2018-06-18T06:26:52.411Z,97660.58
2018-06-18T06:29:19.865Z,97665.52
2018-06-18T06:31:47.358Z,97663.75
2018-06-18T06:34:15.027Z,97663.04
2018-06-18T06:36:42.508Z,97669.28
2018-06-18T06:39:10.091Z,97676.41
2018-06-18T06:41:38.232Z,97676.25
2018-06-18T06:44:06.595Z,97676.77
2018-06-18T06:46:34.036Z,97678.09
2018-06-18T06:49:01.553Z,97688.78
2018-06-18T06:51:29.214Z,97684.72
2018-06-18T06:53:56.669Z,97680.34
2018-06-18T06:56:24.225Z,97683.97
2018-06-18T06:58:51.731Z,97682.65
2018-06-18T07:01:19.253Z,97684.20
2018-06-18T07:03:47.382Z,97684.51
2018-06-18T07:06:15.582Z,97682.66
2018-06-18T07:08:43.209Z,97690.91
2018-06-18T07:11:10.694Z,97692.16
2018-06-18T07:13:38.527Z,97692.36
2018-06-18T07:16:05.845Z,97689.28
2018-06-18T07:18:33.274Z,97689.70
2018-06-18T07:21:00.714Z,97691.56
2018-06-18T07:23:28.514Z,97685.67
2018-06-18T07:25:56.015Z,97685.33
2018-06-18T07:28:23.591Z,97682.95
2018-06-18T07:30:51.044Z,97681.73
2018-06-18T07:33:18.811Z,97688.52
2018-06-18T07:35:46.237Z,97693.89
2018-06-18T07:38:13.683Z,97691.36
2018-06-18T07:40:41.207Z,97697.09
2018-06-18T07:43:08.615Z,97695.47
2018-06-18T07:45:36.382Z,97691.97
2018-06-18T07:48:04.429Z,97692.08
2018-06-18T07:50:31.863Z,97696.05
2018-06-18T07:52:59.355Z,97692.86
2018-06-18T07:55:27.043Z,97687.80
2018-06-18T07:57:54.662Z,97682.65
2018-06-18T08:00:22.240Z,97675.52
2018-06-18T08:02:49.708Z,97684.31
2018-06-18T08:05:17.608Z,97681.64
2018-06-18T08:07:45.081Z,97675.34
2018-06-18T08:10:12.633Z,97680.06
2018-06-18T08:12:40.115Z,97678.48
2018-06-18T08:15:07.542Z,97679.95
2018-06-18T08:17:35.022Z,97679.12
2018-06-18T08:20:02.488Z,97676.47
2018-06-18T08:22:30.021Z,97685.69
2018-06-18T08:24:58.670Z,97685.82
2018-06-18T08:27:26.119Z,97675.41
2018-06-18T08:29:53.655Z,97683.85
2018-06-18T08:32:21.180Z,97683.53
2018-06-18T08:34:49.489Z,97677.72
2018-06-18T08:37:16.944Z,97680.65
2018-06-18T08:39:45.346Z,97684.52
2018-06-18T08:42:12.837Z,97674.94
2018-06-18T08:44:40.243Z,97679.34
2018-06-18T08:47:07.740Z,97669.89
2018-06-18T08:49:35.194Z,97671.02
2018-06-18T08:55:09.776Z,97675.55
2018-06-18T09:00:50.267Z,97671.62
2018-06-18T09:03:17.984Z,97676.48
2018-06-18T09:05:45.477Z,97681.99
2018-06-18T09:08:12.984Z,97675.59
2018-06-18T09:10:40.445Z,97682.45
2018-06-18T09:13:07.923Z,97679.30
2018-06-18T09:15:35.356Z,97687.67
2018-06-18T09:18:02.842Z,97689.65
2018-06-18T09:20:30.596Z,97686.61
2018-06-18T09:22:58.019Z,97686.77
2018-06-18T09:25:25.514Z,97696.65
2018-06-18T09:27:53.156Z,97685.48
2018-06-18T09:30:20.620Z,97688.92
2018-06-18T09:32:48.547Z,97685.36
2018-06-18T09:35:16.316Z,97681.81
2018-06-18T09:37:43.812Z,97685.59
2018-06-18T09:40:10.746Z,97691.84
2018-06-18T09:42:37.815Z,97687.91
2018-06-18T09:45:04.812Z,97691.61
2018-06-18T09:47:31.840Z,97692.39
2018-06-18T09:50:04.578Z,97690.66
2018-06-18T09:55:43.001Z,97695.14
2018-06-18T09:58:15.806Z,97692.89
2018-06-18T10:03:38.795Z,97694.00
2018-06-18T10:06:05.845Z,97697.78
2018-06-18T10:08:33.006Z,97696.00
2018-06-18T10:11:00.016Z,97696.83
2018-06-18T10:13:27.225Z,97699.34
2018-06-18T10:15:54.177Z,97701.63
2018-06-18T10:18:21.822Z,97701.59
2018-06-18T10:20:48.764Z,97705.77
2018-06-18T10:23:15.919Z,97712.02
2018-06-18T10:25:42.961Z,97699.77
2018-06-18T10:28:09.959Z,97703.77
2018-06-18T10:30:36.905Z,97700.83
2018-06-18T10:33:04.003Z,97696.44
2018-06-18T10:38:43.434Z,97693.64
2018-06-18T10:41:27.347Z,97691.23
2018-06-18T10:43:54.745Z,97691.72
2018-06-18T10:46:21.715Z,97692.70
2018-06-18T10:48:48.709Z,97692.53
2018-06-18T10:51:16.017Z,97696.99
2018-06-18T10:53:43.060Z,97694.42
2018-06-18T10:56:10.093Z,97694.08
2018-06-18T10:58:37.271Z,97688.33
2018-06-18T11:01:04.403Z,97688.15
2018-06-18T11:03:31.534Z,97681.72
2018-06-18T11:05:58.599Z,97687.80
2018-06-18T11:08:25.723Z,97688.30
2018-06-18T11:10:52.891Z,97692.60
2018-06-18T11:13:19.866Z,97687.62
2018-06-18T11:15:46.880Z,97679.02
2018-06-18T11:18:30.605Z,97675.57
2018-06-18T11:21:13.184Z,97684.91
2018-06-18T11:23:55.973Z,97678.14
2018-06-18T11:29:19.990Z,97673.59
2018-06-18T11:31:46.976Z,97666.41
2018-06-18T11:34:14.723Z,97658.80
2018-06-18T11:36:41.801Z,97657.10
2018-06-18T11:39:08.802Z,97648.64
2018-06-18T11:41:35.776Z,97646.61
2018-06-18T11:44:02.933Z,97659.55
2018-06-18T11:46:30.379Z,97654.35
2018-06-18T11:48:57.374Z,97647.80
2018-06-18T11:51:24.370Z,97655.70
2018-06-18T11:53:51.890Z,97658.00
2018-06-18T11:56:19.348Z,97659.73
2018-06-18T11:58:46.882Z,97666.31
2018-06-18T12:01:19.959Z,97662.05
2018-06-18T12:04:03.020Z,97658.76
2018-06-18T12:09:29.589Z,97646.00
2018-06-18T12:11:57.038Z,97649.56
2018-06-18T12:14:24.477Z,97655.05
2018-06-18T12:16:52.061Z,97659.39
2018-06-18T12:19:19.444Z,97655.73
2018-06-18T12:21:46.958Z,97650.34
2018-06-18T12:24:14.408Z,97658.33
2018-06-18T12:26:41.359Z,97650.06
2018-06-18T12:29:09.023Z,97651.80
2018-06-18T12:31:36.488Z,97650.92
2018-06-18T12:34:04.118Z,97652.40
2018-06-18T12:36:31.649Z,97647.20
2018-06-18T12:41:32.913Z,97644.95
2018-06-18T12:44:00.427Z,97637.71
2018-06-18T12:49:40.815Z,97640.14
2018-06-18T12:52:23.154Z,97639.21
2018-06-18T12:57:43.740Z,97644.77
2018-06-18T13:00:11.398Z,97638.70
2018-06-18T13:02:39.192Z,97641.25
2018-06-18T13:05:06.289Z,97638.95
2018-06-18T13:07:33.765Z,97634.19
2018-06-18T13:10:01.238Z,97627.12
2018-06-18T13:12:28.687Z,97634.67
2018-06-18T13:14:56.177Z,97630.89
2018-06-18T13:17:23.188Z,97632.36
2018-06-18T13:19:50.179Z,97627.04
2018-06-18T13:22:17.835Z,97626.61
2018-06-18T13:24:44.803Z,97632.86
2018-06-18T13:27:12.255Z,97630.30
2018-06-18T13:29:39.207Z,97627.66
2018-06-18T13:32:06.648Z,97628.81
2018-06-18T13:34:33.703Z,97622.56
2018-06-18T13:37:01.223Z,97621.30
2018-06-18T13:42:39.327Z,97625.67
2018-06-18T13:45:21.257Z,97615.85
2018-06-18T13:48:05.984Z,97617.48
2018-06-18T13:50:33.054Z,97613.11
2018-06-18T13:53:00.021Z,97612.17
2018-06-18T13:55:26.970Z,97613.38
2018-06-18T13:57:54.036Z,97618.89
2018-06-18T14:00:21.319Z,97615.37
2018-06-18T14:02:48.289Z,97619.03
2018-06-18T14:05:15.313Z,97609.47
2018-06-18T14:07:42.498Z,97606.84
2018-06-18T14:10:09.507Z,97608.38
2018-06-18T14:12:36.568Z,97608.36
2018-06-18T14:15:03.597Z,97613.72
2018-06-18T14:17:30.729Z,97616.83
2018-06-18T14:19:57.914Z,97616.18
2018-06-18T14:22:25.320Z,97611.44
2018-06-18T14:24:52.336Z,97613.27
2018-06-18T14:27:19.540Z,97616.53
2018-06-18T14:29:46.590Z,97615.30
2018-06-18T14:32:13.583Z,97614.92
2018-06-18T14:34:46.226Z,97610.16
2018-06-18T14:37:30.004Z,97604.75
2018-06-18T14:39:57.015Z,97606.16
2018-06-18T14:42:24.242Z,97608.37
2018-06-18T14:44:51.108Z,97598.34
2018-06-18T14:47:18.176Z,97595.23
2018-06-18T14:49:45.212Z,97592.77
2018-06-18T14:52:12.207Z,97596.80
2018-06-18T14:54:39.215Z,97593.23
2018-06-18T14:57:06.357Z,97596.53
2018-06-18T14:59:33.405Z,97591.72
2018-06-18T15:02:00.467Z,97588.16
2018-06-18T15:04:27.599Z,97597.83
2018-06-18T15:06:54.615Z,97602.25
2018-06-18T15:09:22.452Z,97598.35
2018-06-18T15:11:49.391Z,97596.36
2018-06-18T15:14:16.355Z,97600.85
2018-06-18T15:16:43.516Z,97600.73
2018-06-18T15:19:10.590Z,97595.65
2018-06-18T15:21:37.591Z,97598.38
2018-06-18T15:24:04.619Z,97591.96
2018-06-18T15:26:31.640Z,97593.47
2018-06-18T15:28:58.760Z,97594.41
2018-06-18T15:31:25.740Z,97593.40
2018-06-18T15:33:52.778Z,97594.06
2018-06-18T15:36:19.795Z,97598.83
2018-06-18T15:38:46.787Z,97595.02
2018-06-18T15:41:13.899Z,97596.88
2018-06-18T15:43:40.929Z,97595.59
2018-06-18T15:46:07.896Z,97589.08
2018-06-18T15:48:34.994Z,97588.09
2018-06-18T15:51:02.044Z,97589.61
2018-06-18T15:53:29.047Z,97584.34
2018-06-18T15:55:56.344Z,97586.12
2018-06-18T15:58:23.444Z,97581.48
2018-06-18T16:00:50.886Z,97585.40
2018-06-18T16:03:17.900Z,97586.09
2018-06-18T16:05:45.423Z,97580.83
2018-06-18T16:08:12.850Z,97586.09
2018-06-18T16:10:40.307Z,97573.16
2018-06-18T16:13:07.766Z,97585.94
2018-06-18T16:15:35.198Z,97586.88
2018-06-18T16:18:02.653Z,97584.66
2018-06-18T16:20:30.145Z,97585.16
2018-06-18T16:22:57.635Z,97582.90
2018-06-18T16:25:25.113Z,97576.87
2018-06-18T16:27:52.754Z,97583.38
2018-06-18T16:30:20.368Z,97580.78
2018-06-18T16:32:47.980Z,97574.58
2018-06-18T16:35:15.430Z,97584.14
2018-06-18T16:37:43.024Z,97581.59
2018-06-18T16:40:10.492Z,97580.38
2018-06-18T16:42:38.062Z,97581.84
2018-06-18T16:45:05.631Z,97579.98
2018-06-18T16:47:33.061Z,97574.86
2018-06-18T16:50:00.508Z,97583.59
2018-06-18T16:52:28.187Z,97578.89
2018-06-18T16:54:55.640Z,97576.74
2018-06-18T16:57:23.511Z,97573.94
2018-06-18T16:59:50.994Z,97568.73
2018-06-18T17:02:18.489Z,97561.04
2018-06-18T17:04:45.988Z,97569.93
2018-06-18T17:07:13.669Z,97573.10
2018-06-18T17:09:41.196Z,97568.53
2018-06-18T17:12:08.661Z,97565.61
2018-06-18T17:14:36.176Z,97568.31
2018-06-18T17:17:03.739Z,97568.78
2018-06-18T17:19:31.219Z,97571.66
2018-06-18T17:21:58.873Z,97570.36
2018-06-18T17:24:26.337Z,97577.27
2018-06-18T17:26:53.948Z,97581.16
2018-06-18T17:29:21.385Z,97583.83
2018-06-18T17:31:48.993Z,97583.89
2018-06-18T17:34:16.522Z,97582.73
2018-06-18T17:36:43.945Z,97587.86
2018-06-18T17:39:11.371Z,97594.98
2018-06-18T17:41:38.853Z,97592.94
2018-06-18T17:44:06.333Z,97593.35
2018-06-18T17:46:33.837Z,97594.19
2018-06-18T17:49:01.272Z,97602.08
2018-06-18T17:51:28.747Z,97600.70
2018-06-18T17:53:56.262Z,97598.23
2018-06-18T17:56:23.831Z,97597.58
2018-06-18T17:58:51.306Z,97596.91
2018-06-18T18:01:18.759Z,97602.57
2018-06-18T18:03:46.361Z,97603.44
2018-06-18T18:06:13.852Z,97596.59
2018-06-18T18:08:41.313Z,97602.13
2018-06-18T18:11:08.810Z,97593.10
2018-06-18T18:13:36.410Z,97601.66
2018-06-18T18:16:04.386Z,97603.52
2018-06-18T18:18:31.875Z,97608.56
2018-06-18T18:20:59.307Z,97607.34
2018-06-18T18:23:27.590Z,97609.76
2018-06-18T18:25:55.042Z,97606.97
2018-06-18T18:28:22.579Z,97605.71
2018-06-18T18:30:50.060Z,97611.78
2018-06-18T18:33:17.533Z,97609.06
2018-06-18T18:35:44.952Z,97617.74
2018-06-18T18:38:12.432Z,97618.13
2018-06-18T18:40:39.924Z,97611.30
2018-06-18T18:43:07.442Z,97613.58
2018-06-18T18:45:34.982Z,97612.90
2018-06-18T18:48:02.310Z,97617.44
2018-06-18T18:50:29.800Z,97618.51
2018-06-18T18:52:57.369Z,97623.14
2018-06-18T18:58:28.670Z,97623.33
2018-06-18T19:00:56.119Z,97626.13
2018-06-18T19:03:23.649Z,97626.25
2018-06-18T19:05:51.154Z,97629.55
2018-06-18T19:08:18.799Z,97631.76
2018-06-18T19:10:46.222Z,97625.57
2018-06-18T19:13:13.702Z,97633.03
2018-06-18T19:15:41.162Z,97638.48
2018-06-18T19:18:08.750Z,97640.52
2018-06-18T19:20:36.152Z,97638.34
2018-06-18T19:23:04.848Z,97645.89
2018-06-18T19:25:32.292Z,97642.85
2018-06-18T19:27:59.790Z,97644.61
2018-06-18T19:30:27.280Z,97649.64
2018-06-18T19:32:54.755Z,97652.97
2018-06-18T19:35:22.264Z,97657.06
2018-06-18T19:37:49.735Z,97663.56
2018-06-18T19:40:17.187Z,97657.20
2018-06-18T19:42:44.665Z,97662.30
2018-06-18T19:45:12.356Z,97673.33
2018-06-18T19:47:39.918Z,97673.39
2018-06-18T19:50:07.489Z,97676.33
2018-06-18T19:52:34.933Z,97678.55
2018-06-18T19:55:02.420Z,97684.63
2018-06-18T19:57:29.926Z,97687.92
2018-06-18T19:59:57.348Z,97690.84
2018-06-18T20:02:24.806Z,97695.87
2018-06-18T20:04:52.226Z,97694.33
2018-06-18T20:07:19.719Z,97705.69
2018-06-18T20:09:47.167Z,97701.26
2018-06-18T20:12:14.627Z,97705.52
2018-06-18T20:14:42.339Z,97703.41
2018-06-18T20:17:09.794Z,97712.77
2018-06-18T20:19:37.267Z,97712.85
2018-06-18T20:22:04.761Z,97713.13
2018-06-18T20:24:32.301Z,97718.94
2018-06-18T20:26:59.843Z,97719.53
2018-06-18T20:29:27.330Z,97727.42
2018-06-18T20:31:54.961Z,97723.13
2018-06-18T20:34:23.014Z,97719.02
2018-06-18T20:36:50.518Z,97721.73
2018-06-18T20:39:18.006Z,97732.08
2018-06-18T20:41:45.477Z,97729.91
2018-06-18T20:44:12.916Z,97731.39
2018-06-18T20:46:40.435Z,97731.98
2018-06-18T20:49:07.859Z,97737.06
2018-06-18T20:51:35.344Z,97730.41
2018-06-18T20:54:02.945Z,97731.33
2018-06-18T20:56:30.377Z,97730.56
2018-06-18T20:58:57.858Z,97735.52
2018-06-18T21:01:25.263Z,97737.51
2018-06-18T21:03:52.708Z,97734.52
2018-06-18T21:06:21.341Z,97732.88
2018-06-18T21:08:48.980Z,97732.13
2018-06-18T21:11:16.428Z,97735.72
2018-06-18T21:13:43.885Z,97730.36
2018-06-18T21:16:11.320Z,97734.74
2018-06-18T21:18:38.834Z,97728.77
2018-06-18T21:21:06.274Z,97731.82
2018-06-18T21:23:33.753Z,97738.13
2018-06-18T21:26:01.168Z,97737.13
2018-06-18T21:28:29.016Z,97735.66
2018-06-18T21:30:56.516Z,97726.91
2018-06-18T21:33:23.921Z,97736.55
2018-06-18T21:35:51.389Z,97733.83
2018-06-18T21:38:18.929Z,97726.16
2018-06-18T21:40:46.468Z,97733.42
2018-06-18T21:43:14.053Z,97728.13
2018-06-18T21:45:41.575Z,97730.49
2018-06-18T21:48:10.322Z,97733.62
2018-06-18T21:50:37.944Z,97734.22
2018-06-18T21:53:05.478Z,97733.67
2018-06-18T21:55:33.989Z,97736.34
2018-06-18T21:58:01.430Z,97740.76
2018-06-18T22:00:28.883Z,97743.61
2018-06-18T22:02:56.442Z,97748.30
2018-06-18T22:05:43.961Z,97747.97
2018-06-18T22:08:11.457Z,97746.16
2018-06-18T22:10:39.012Z,97757.88
2018-06-18T22:13:06.546Z,97763.58
2018-06-18T22:15:34.007Z,97758.75
2018-06-18T22:18:01.469Z,97757.97
2018-06-18T22:20:28.906Z,97761.22
2018-06-18T22:22:56.376Z,97758.59
2018-06-18T22:25:23.854Z,97755.97
2018-06-18T22:27:51.353Z,97757.67
2018-06-18T22:30:18.866Z,97757.03
2018-06-18T22:32:46.360Z,97755.20
2018-06-18T22:35:13.928Z,97765.90
2018-06-18T22:37:41.443Z,97770.90
2018-06-18T22:40:09.099Z,97770.06
2018-06-18T22:42:36.532Z,97761.17
2018-06-18T22:45:04.127Z,97764.90
2018-06-18T22:47:31.591Z,97761.67
2018-06-18T22:49:59.061Z,97766.20
2018-06-18T22:52:26.519Z,97767.76
2018-06-18T22:54:54.216Z,97768.84
2018-06-18T22:57:21.606Z,97762.23
2018-06-18T22:59:49.141Z,97762.98
2018-06-18T23:02:16.650Z,97769.03
2018-06-18T23:04:44.113Z,97768.53
2018-06-18T23:07:11.551Z,97772.89
2018-06-18T23:09:38.963Z,97771.95
2018-06-18T23:12:06.539Z,97775.34
2018-06-18T23:14:34.184Z,97767.37
2018-06-18T23:17:01.646Z,97762.40
2018-06-18T23:19:29.148Z,97771.51
2018-06-18T23:21:56.545Z,97773.43
2018-06-18T23:24:23.992Z,97773.54
2018-06-18T23:26:51.530Z,97777.89
2018-06-18T23:29:18.981Z,97772.92
2018-06-18T23:31:46.470Z,97779.36
2018-06-18T23:34:13.920Z,97777.16
2018-06-18T23:36:41.310Z,97777.34
2018-06-18T23:39:08.812Z,97781.33
2018-06-18T23:41:36.223Z,97778.67
2018-06-18T23:44:03.964Z,97783.44
2018-06-18T23:46:31.473Z,97781.19
2018-06-18T23:48:58.932Z,97782.71
2018-06-18T23:51:26.402Z,97789.80
2018-06-18T23:53:53.852Z,97781.83
2018-06-18T23:56:21.281Z,97781.88
2018-06-18T23:58:48.772Z,97792.42
